createdAt,value
2018-08-25T00:00:20.845Z,97610.04
2018-08-25T00:02:50.228Z,97606.02
2018-08-25T00:05:19.739Z,97610.99
2018-08-25T00:07:49.028Z,97614.99
2018-08-25T00:10:18.540Z,97617.97
2018-08-25T00:12:47.808Z,97613.48
2018-08-25T00:15:17.100Z,97613.77
2018-08-25T00:17:46.446Z,97613.91
2018-08-25T00:20:15.820Z,97614.64
2018-08-25T00:22:45.348Z,97619.85
2018-08-25T00:25:14.798Z,97615.80
2018-08-25T00:27:44.056Z,97611.20
2018-08-25T00:30:18.184Z,97612.86
2018-08-25T00:32:47.560Z,97609.98
2018-08-25T00:35:16.684Z,97612.88
2018-08-25T00:37:45.949Z,97615.52
2018-08-25T00:40:15.564Z,97609.78
2018-08-25T00:42:44.919Z,97616.55
2018-08-25T00:45:14.311Z,97621.52
2018-08-25T00:47:43.761Z,97617.89
2018-08-25T00:50:13.066Z,97621.64
2018-08-25T00:52:42.028Z,97623.68
2018-08-25T00:55:11.108Z,97621.45
2018-08-25T00:57:40.203Z,97617.08
2018-08-25T01:00:09.534Z,97625.33
2018-08-25T01:02:38.644Z,97619.89
2018-08-25T01:05:07.786Z,97626.78
2018-08-25T01:07:37.183Z,97624.83
2018-08-25T01:10:06.265Z,97628.03
2018-08-25T01:12:35.563Z,97634.88
2018-08-25T01:15:04.905Z,97630.34
2018-08-25T01:17:34.187Z,97631.52
2018-08-25T01:20:03.475Z,97627.12
2018-08-25T01:22:32.780Z,97623.88
2018-08-25T01:25:02.077Z,97621.45
2018-08-25T01:27:31.422Z,97625.41
2018-08-25T01:30:00.719Z,97621.61
2018-08-25T01:32:30.212Z,97630.14
2018-08-25T01:34:59.203Z,97635.11
2018-08-25T01:37:28.720Z,97638.52
2018-08-25T01:39:58.108Z,97635.34
2018-08-25T01:42:27.323Z,97637.48
2018-08-25T01:44:56.584Z,97641.13
2018-08-25T01:47:25.802Z,97635.41
2018-08-25T01:49:55.168Z,97637.72
2018-08-25T01:52:24.574Z,97631.88
2018-08-25T01:54:53.639Z,97640.15
2018-08-25T01:57:22.711Z,97635.19
2018-08-25T01:59:52.013Z,97638.23
2018-08-25T02:02:21.363Z,97635.05
2018-08-25T02:04:50.779Z,97637.80
2018-08-25T02:07:20.202Z,97643.80
2018-08-25T02:09:49.247Z,97643.84
2018-08-25T02:12:18.312Z,97649.33
2018-08-25T02:14:47.478Z,97647.84
2018-08-25T02:17:16.720Z,97648.53
2018-08-25T02:19:45.879Z,97653.34
2018-08-25T02:22:15.059Z,97640.63
2018-08-25T02:24:44.154Z,97635.12
2018-08-25T02:27:13.459Z,97638.64
2018-08-25T02:29:42.800Z,97646.17
2018-08-25T02:32:11.925Z,97645.70
2018-08-25T02:34:41.097Z,97645.01
2018-08-25T02:37:10.611Z,97642.93
2018-08-25T02:39:39.963Z,97634.79
2018-08-25T02:42:09.462Z,97637.31
2018-08-25T02:44:38.599Z,97638.83
2018-08-25T02:47:08.023Z,97640.55
2018-08-25T02:49:36.932Z,97641.30
2018-08-25T02:52:06.159Z,97644.62
2018-08-25T02:54:35.103Z,97641.48
2018-08-25T02:57:04.159Z,97640.63
2018-08-25T02:59:33.311Z,97638.30
2018-08-25T03:02:03.040Z,97640.03
2018-08-25T03:04:32.494Z,97639.80
2018-08-25T03:07:01.618Z,97641.10
2018-08-25T03:09:30.989Z,97638.05
2018-08-25T03:12:00.009Z,97640.47
2018-08-25T03:14:29.296Z,97643.53
2018-08-25T03:16:58.720Z,97648.45
2018-08-25T03:19:28.098Z,97652.91
2018-08-25T03:21:57.549Z,97643.43
2018-08-25T03:24:27.018Z,97633.91
2018-08-25T03:26:56.233Z,97643.84
2018-08-25T03:29:25.222Z,97647.67
2018-08-25T03:31:54.145Z,97653.52
2018-08-25T03:34:23.532Z,97649.86
2018-08-25T03:36:52.659Z,97646.56
2018-08-25T03:39:22.021Z,97648.80
2018-08-25T03:41:51.391Z,97650.55
2018-08-25T03:44:20.912Z,97642.57
2018-08-25T03:46:50.263Z,97634.38
2018-08-25T03:49:19.362Z,97642.05
2018-08-25T03:51:48.409Z,97636.84
2018-08-25T03:54:17.918Z,97638.12
2018-08-25T03:56:47.219Z,97646.11
2018-08-25T03:59:16.604Z,97641.94
2018-08-25T04:01:45.881Z,97646.28
2018-08-25T04:04:15.045Z,97649.22
2018-08-25T04:06:44.347Z,97649.00
2018-08-25T04:09:14.746Z,97645.36
2018-08-25T04:11:43.655Z,97645.23
2018-08-25T04:14:13.415Z,97645.95
2018-08-25T04:16:42.511Z,97647.20
2018-08-25T04:19:21.024Z,97649.30
2018-08-25T04:21:50.764Z,97655.88
2018-08-25T04:24:20.000Z,97646.73
2018-08-25T04:26:49.259Z,97650.16
2018-08-25T04:29:18.747Z,97652.36
2018-08-25T04:31:48.148Z,97647.32
2018-08-25T04:34:17.511Z,97647.38
2018-08-25T04:36:46.792Z,97644.19
2018-08-25T04:39:16.192Z,97647.31
2018-08-25T04:41:45.552Z,97645.52
2018-08-25T04:44:14.532Z,97648.91
2018-08-25T04:46:43.794Z,97650.38
2018-08-25T04:49:12.918Z,97656.06
2018-08-25T04:51:42.000Z,97654.06
2018-08-25T04:54:11.284Z,97654.25
2018-08-25T04:56:40.979Z,97654.67
2018-08-25T04:59:10.231Z,97650.38
2018-08-25T05:01:39.733Z,97653.71
2018-08-25T05:04:09.236Z,97658.09
2018-08-25T05:06:38.645Z,97657.87
2018-08-25T05:09:09.401Z,97660.70
2018-08-25T05:11:38.739Z,97652.10
2018-08-25T05:14:08.097Z,97658.66
2018-08-25T05:16:37.151Z,97654.81
2018-08-25T05:19:06.424Z,97660.17
2018-08-25T05:21:35.621Z,97661.52
2018-08-25T05:24:04.732Z,97660.66
2018-08-25T05:26:33.734Z,97660.75
2018-08-25T05:29:03.149Z,97654.94
2018-08-25T05:31:32.153Z,97652.36
2018-08-25T05:34:01.363Z,97652.48
2018-08-25T05:36:30.856Z,97654.18
2018-08-25T05:38:59.925Z,97652.43
2018-08-25T05:41:29.333Z,97654.70
2018-08-25T05:43:58.691Z,97655.88
2018-08-25T05:46:28.048Z,97658.51
2018-08-25T05:48:57.309Z,97651.39
2018-08-25T05:51:26.914Z,97661.31
2018-08-25T05:53:55.936Z,97660.44
2018-08-25T05:56:25.335Z,97664.51
2018-08-25T05:58:54.557Z,97664.41
2018-08-25T06:01:24.030Z,97665.20
2018-08-25T06:03:53.603Z,97671.27
2018-08-25T06:06:22.828Z,97669.67
2018-08-25T06:08:52.058Z,97668.17
2018-08-25T06:11:21.195Z,97672.47
2018-08-25T06:13:50.118Z,97670.06
2018-08-25T06:16:19.471Z,97666.19
2018-08-25T06:18:48.559Z,97669.53
2018-08-25T06:21:17.785Z,97666.86
2018-08-25T06:23:47.042Z,97667.93
2018-08-25T06:26:16.418Z,97669.08
2018-08-25T06:28:45.629Z,97678.84
2018-08-25T06:31:14.619Z,97674.52
2018-08-25T06:33:43.679Z,97677.40
2018-08-25T06:36:12.938Z,97667.58
2018-08-25T06:38:42.031Z,97670.67
2018-08-25T06:41:11.300Z,97666.48
2018-08-25T06:43:40.671Z,97670.33
2018-08-25T06:46:10.608Z,97674.16
2018-08-25T06:48:41.014Z,97671.88
2018-08-25T06:51:10.522Z,97672.19
2018-08-25T06:53:39.907Z,97680.66
2018-08-25T06:56:08.936Z,97673.73
2018-08-25T06:58:38.324Z,97669.76
2018-08-25T07:01:07.806Z,97671.63
2018-08-25T07:03:37.345Z,97669.80
2018-08-25T07:06:06.671Z,97668.02
2018-08-25T07:08:35.812Z,97669.86
2018-08-25T07:11:05.021Z,97665.58
2018-08-25T07:13:34.303Z,97663.73
2018-08-25T07:16:03.423Z,97664.80
2018-08-25T07:18:32.808Z,97667.53
2018-08-25T07:21:02.248Z,97665.78
2018-08-25T07:23:31.753Z,97665.91
2018-08-25T07:26:01.110Z,97658.94
2018-08-25T07:28:30.418Z,97669.52
2018-08-25T07:30:59.609Z,97662.33
2018-08-25T07:33:28.644Z,97668.89
2018-08-25T07:35:58.007Z,97661.80
2018-08-25T07:38:27.677Z,97661.03
2018-08-25T07:40:57.126Z,97660.28
2018-08-25T07:43:26.667Z,97658.57
2018-08-25T07:45:55.808Z,97651.64
2018-08-25T07:48:25.325Z,97660.77
2018-08-25T07:50:54.644Z,97652.49
2018-08-25T07:53:24.269Z,97653.23
2018-08-25T07:55:54.333Z,97651.92
2018-08-25T07:58:23.858Z,97654.22
2018-08-25T08:00:53.000Z,97656.31
2018-08-25T08:03:22.346Z,97652.63
2018-08-25T08:05:51.919Z,97649.11
2018-08-25T08:08:21.171Z,97653.59
2018-08-25T08:10:50.699Z,97655.89
2018-08-25T08:13:20.256Z,97651.09
2018-08-25T08:15:49.432Z,97659.30
2018-08-25T08:18:18.355Z,97652.32
2018-08-25T08:20:47.610Z,97653.14
2018-08-25T08:23:16.892Z,97648.38
2018-08-25T08:25:46.108Z,97648.58
2018-08-25T08:28:15.330Z,97648.18
2018-08-25T08:30:44.673Z,97637.15
2018-08-25T08:33:13.837Z,97641.28
2018-08-25T08:35:42.917Z,97644.30
2018-08-25T08:38:12.185Z,97649.17
2018-08-25T08:40:41.094Z,97637.81
2018-08-25T08:43:10.395Z,97642.10
2018-08-25T08:45:39.611Z,97645.22
2018-08-25T08:48:08.997Z,97636.37
2018-08-25T08:50:38.251Z,97634.53
2018-08-25T08:53:07.422Z,97632.28
2018-08-25T08:55:36.456Z,97629.95
2018-08-25T08:58:05.793Z,97627.48
2018-08-25T09:00:35.155Z,97623.80
2018-08-25T09:03:04.579Z,97621.50
2018-08-25T09:05:33.899Z,97620.54
2018-08-25T09:08:04.305Z,97622.28
2018-08-25T09:10:34.408Z,97625.20
2018-08-25T09:13:03.946Z,97621.94
2018-08-25T09:15:33.351Z,97621.09
2018-08-25T09:18:02.891Z,97623.13
2018-08-25T09:20:32.073Z,97612.88
2018-08-25T09:23:01.383Z,97618.11
2018-08-25T09:25:31.495Z,97616.45
2018-08-25T09:28:00.958Z,97611.36
2018-08-25T09:30:30.368Z,97611.17
2018-08-25T09:32:59.650Z,97613.38
2018-08-25T09:35:28.814Z,97601.80
2018-08-25T09:37:58.039Z,97602.58
2018-08-25T09:40:27.306Z,97602.98
2018-08-25T09:42:56.903Z,97605.61
2018-08-25T09:45:26.108Z,97603.39
2018-08-25T09:47:54.958Z,97599.98
2018-08-25T09:50:24.341Z,97598.06
2018-08-25T09:52:53.608Z,97595.70
2018-08-25T09:55:23.042Z,97598.05
2018-08-25T09:57:52.107Z,97594.80
2018-08-25T10:00:21.449Z,97589.28
2018-08-25T10:02:50.496Z,97582.28
2018-08-25T10:05:19.918Z,97576.60
2018-08-25T10:07:48.927Z,97573.30
2018-08-25T10:10:18.282Z,97571.06
2018-08-25T10:12:47.486Z,97565.25
2018-08-25T10:15:16.933Z,97559.52
2018-08-25T10:17:45.948Z,97555.40
2018-08-25T10:20:15.266Z,97562.73
2018-08-25T10:22:44.612Z,97563.72
2018-08-25T10:25:13.799Z,97567.55
2018-08-25T10:27:43.305Z,97563.97
2018-08-25T10:30:12.672Z,97563.78
2018-08-25T10:32:41.932Z,97564.76
2018-08-25T10:35:11.150Z,97557.94
2018-08-25T10:37:40.419Z,97557.94
2018-08-25T10:40:09.761Z,97552.39
2018-08-25T10:42:39.009Z,97555.52
2018-08-25T10:45:08.259Z,97556.89
2018-08-25T10:47:37.435Z,97553.48
2018-08-25T10:50:06.913Z,97549.12
2018-08-25T10:52:36.119Z,97546.92
2018-08-25T10:55:05.495Z,97546.28
2018-08-25T10:57:34.735Z,97544.77
2018-08-25T11:00:04.002Z,97540.31
2018-08-25T11:02:33.363Z,97538.45
2018-08-25T11:05:02.225Z,97534.08
2018-08-25T11:07:31.596Z,97529.34
2018-08-25T11:10:00.892Z,97532.70
2018-08-25T11:12:30.149Z,97533.56
2018-08-25T11:14:59.843Z,97526.79
2018-08-25T11:17:28.844Z,97524.37
2018-08-25T11:19:58.180Z,97517.95
2018-08-25T11:22:27.367Z,97509.92
2018-08-25T11:24:56.777Z,97506.94
2018-08-25T11:27:26.035Z,97516.48
2018-08-25T11:29:55.320Z,97501.69
2018-08-25T11:32:24.646Z,97514.56
2018-08-25T11:34:53.781Z,97512.30
2018-08-25T11:37:23.093Z,97504.81
2018-08-25T11:39:52.519Z,97508.91
2018-08-25T11:42:21.880Z,97497.16
2018-08-25T11:44:51.233Z,97493.16
2018-08-25T11:47:20.272Z,97486.08
2018-08-25T11:49:49.539Z,97481.97
2018-08-25T11:52:18.764Z,97487.82
2018-08-25T11:54:47.721Z,97478.67
2018-08-25T11:57:16.916Z,97486.34
2018-08-25T11:59:46.329Z,97470.34
2018-08-25T12:02:16.035Z,97466.19
2018-08-25T12:04:46.199Z,97459.70
2018-08-25T12:07:15.660Z,97463.32
2018-08-25T12:09:44.929Z,97457.38
2018-08-25T12:12:14.274Z,97458.05
2018-08-25T12:14:43.406Z,97455.80
2018-08-25T12:17:12.701Z,97454.53
2018-08-25T12:19:41.737Z,97445.11
2018-08-25T12:22:10.988Z,97439.44
2018-08-25T12:24:40.245Z,97436.75
2018-08-25T12:27:09.171Z,97426.98
2018-08-25T12:29:38.545Z,97424.52
2018-08-25T12:32:07.817Z,97427.28
2018-08-25T12:34:37.204Z,97426.54
2018-08-25T12:37:06.456Z,97422.98
2018-08-25T12:39:35.576Z,97425.24
2018-08-25T12:42:04.633Z,97425.16
2018-08-25T12:44:33.874Z,97424.14
2018-08-25T12:47:03.203Z,97420.88
2018-08-25T12:49:32.367Z,97417.31
2018-08-25T12:52:01.615Z,97414.14
2018-08-25T12:54:30.912Z,97412.43
2018-08-25T12:57:00.064Z,97410.86
2018-08-25T12:59:29.497Z,97409.02
2018-08-25T13:01:58.832Z,97405.80
2018-08-25T13:04:28.171Z,97410.19
2018-08-25T13:06:57.195Z,97412.05
2018-08-25T13:09:26.112Z,97406.27
2018-08-25T13:11:55.454Z,97398.97
2018-08-25T13:14:24.441Z,97391.73
2018-08-25T13:16:53.793Z,97389.17
2018-08-25T13:19:23.046Z,97397.91
2018-08-25T13:21:52.332Z,97398.49
2018-08-25T13:24:21.511Z,97393.47
2018-08-25T13:26:50.817Z,97389.31
2018-08-25T13:29:20.108Z,97384.71
2018-08-25T13:31:49.543Z,97390.69
2018-08-25T13:34:18.961Z,97385.83
2018-08-25T13:36:48.260Z,97397.16
2018-08-25T13:39:17.616Z,97390.55
2018-08-25T13:41:47.148Z,97390.39
2018-08-25T13:44:16.650Z,97379.69
2018-08-25T13:46:46.000Z,97381.52
2018-08-25T13:49:15.332Z,97379.84
2018-08-25T13:51:44.574Z,97387.74
2018-08-25T13:54:13.518Z,97382.36
2018-08-25T13:56:42.713Z,97373.17
2018-08-25T13:59:11.868Z,97368.41
2018-08-25T14:01:41.123Z,97369.78
2018-08-25T14:04:10.379Z,97365.92
2018-08-25T14:06:39.872Z,97354.91
2018-08-25T14:09:09.425Z,97353.34
2018-08-25T14:11:38.701Z,97357.64
2018-08-25T14:14:07.853Z,97347.94
2018-08-25T14:16:37.159Z,97346.17
2018-08-25T14:19:06.252Z,97340.81
2018-08-25T14:21:35.645Z,97347.92
2018-08-25T14:24:05.120Z,97342.90
2018-08-25T14:26:34.423Z,97326.83
2018-08-25T14:29:03.529Z,97326.58
2018-08-25T14:31:32.773Z,97325.27
2018-08-25T14:34:01.975Z,97323.61
2018-08-25T14:36:31.416Z,97326.31
2018-08-25T14:39:00.605Z,97320.74
2018-08-25T14:41:29.739Z,97316.17
2018-08-25T14:43:58.980Z,97305.50
2018-08-25T14:46:28.163Z,97301.65
2018-08-25T14:48:57.412Z,97297.05
2018-08-25T14:51:26.532Z,97301.34
2018-08-25T14:53:55.816Z,97296.75
2018-08-25T14:56:25.108Z,97302.29
2018-08-25T14:58:54.415Z,97298.98
2018-08-25T15:01:23.937Z,97305.13
2018-08-25T15:03:53.180Z,97305.79
2018-08-25T15:06:22.134Z,97304.08
2018-08-25T15:08:51.101Z,97299.21
2018-08-25T15:11:20.212Z,97300.12
2018-08-25T15:13:49.765Z,97297.87
2018-08-25T15:16:18.919Z,97290.54
2018-08-25T15:18:48.332Z,97289.84
2018-08-25T15:21:17.676Z,97292.58
2018-08-25T15:23:46.854Z,97296.36
2018-08-25T15:26:15.881Z,97303.78
2018-08-25T15:28:45.164Z,97303.11
2018-08-25T15:31:14.139Z,97304.54
2018-08-25T15:33:43.275Z,97305.39
2018-08-25T15:36:12.520Z,97302.45
2018-08-25T15:38:41.847Z,97301.98
2018-08-25T15:41:10.825Z,97304.58
2018-08-25T15:43:39.862Z,97304.04
2018-08-25T15:46:09.258Z,97303.42
2018-08-25T15:48:38.364Z,97308.43
2018-08-25T15:51:07.753Z,97305.98
2018-08-25T15:53:36.842Z,97318.00
2018-08-25T15:56:06.059Z,97317.37
2018-08-25T15:58:35.466Z,97323.09
2018-08-25T16:01:04.640Z,97321.08
2018-08-25T16:03:34.124Z,97325.65
2018-08-25T16:06:03.147Z,97326.56
2018-08-25T16:08:32.467Z,97318.08
2018-08-25T16:11:01.337Z,97324.74
2018-08-25T16:13:30.532Z,97323.16
2018-08-25T16:16:00.069Z,97337.72
2018-08-25T16:18:29.599Z,97330.70
2018-08-25T16:20:58.956Z,97330.23
2018-08-25T16:23:28.243Z,97326.37
2018-08-25T16:25:57.746Z,97335.39
2018-08-25T16:28:26.784Z,97330.22
2018-08-25T16:30:56.185Z,97329.23
2018-08-25T16:33:25.592Z,97330.91
2018-08-25T16:35:54.897Z,97328.57
2018-08-25T16:38:24.233Z,97328.92
2018-08-25T16:40:53.737Z,97323.70
2018-08-25T16:43:23.121Z,97333.47
2018-08-25T16:45:52.707Z,97325.77
2018-08-25T16:48:21.843Z,97327.65
2018-08-25T16:50:51.348Z,97330.52
2018-08-25T16:53:20.551Z,97332.39
2018-08-25T16:55:49.967Z,97331.70
2018-08-25T16:58:18.939Z,97327.32
2018-08-25T17:00:48.179Z,97336.12
2018-08-25T17:03:17.408Z,97335.09
2018-08-25T17:05:46.334Z,97332.05
2018-08-25T17:08:15.698Z,97334.08
2018-08-25T17:10:45.028Z,97333.41
2018-08-25T17:13:14.162Z,97342.80
2018-08-25T17:15:43.510Z,97338.40
2018-08-25T17:18:12.816Z,97343.09
2018-08-25T17:20:42.179Z,97344.75
2018-08-25T17:23:11.777Z,97349.47
2018-08-25T17:25:41.071Z,97348.63
2018-08-25T17:28:10.204Z,97353.98
2018-08-25T17:30:39.257Z,97353.98
2018-08-25T17:33:08.675Z,97354.48
2018-08-25T17:35:37.876Z,97354.67
2018-08-25T17:38:07.421Z,97360.23
2018-08-25T17:40:36.677Z,97361.92
2018-08-25T17:43:05.975Z,97364.91
2018-08-25T17:45:35.463Z,97363.92
2018-08-25T17:48:05.183Z,97366.64
2018-08-25T17:50:34.510Z,97371.37
2018-08-25T17:53:03.724Z,97366.99
2018-08-25T17:55:33.080Z,97373.05
2018-08-25T17:58:02.079Z,97381.98
2018-08-25T18:00:31.438Z,97377.10
2018-08-25T18:03:00.721Z,97383.48
2018-08-25T18:05:29.757Z,97382.92
2018-08-25T18:07:58.826Z,97388.48
2018-08-25T18:10:28.136Z,97387.44
2018-08-25T18:12:57.496Z,97388.30
2018-08-25T18:15:26.760Z,97387.45
2018-08-25T18:17:56.187Z,97388.57
2018-08-25T18:20:25.283Z,97389.43
2018-08-25T18:22:54.282Z,97390.72
2018-08-25T18:25:23.271Z,97390.35
2018-08-25T18:27:52.466Z,97383.95
2018-08-25T18:30:21.994Z,97388.81
2018-08-25T18:32:51.130Z,97388.46
2018-08-25T18:35:20.555Z,97391.12
2018-08-25T18:37:49.835Z,97391.64
2018-08-25T18:40:18.853Z,97394.95
2018-08-25T18:42:47.697Z,97389.41
2018-08-25T18:45:17.021Z,97393.28
2018-08-25T18:47:46.397Z,97396.99
2018-08-25T18:50:15.746Z,97393.78
2018-08-25T18:52:44.790Z,97394.07
2018-08-25T18:55:14.290Z,97393.91
2018-08-25T18:57:43.802Z,97395.47
2018-08-25T19:00:13.088Z,97404.42
2018-08-25T19:02:42.155Z,97395.80
2018-08-25T19:05:11.595Z,97391.88
2018-08-25T19:07:41.073Z,97400.48
2018-08-25T19:10:10.367Z,97398.61
2018-08-25T19:12:39.768Z,97410.91
2018-08-25T19:15:09.051Z,97404.98
2018-08-25T19:17:38.458Z,97402.53
2018-08-25T19:20:07.796Z,97404.36
2018-08-25T19:22:36.971Z,97403.13
2018-08-25T19:25:06.287Z,97401.84
2018-08-25T19:27:35.528Z,97398.36
2018-08-25T19:30:05.039Z,97405.70
2018-08-25T19:32:34.184Z,97400.28
2018-08-25T19:35:03.471Z,97398.69
2018-08-25T19:37:32.889Z,97399.80
2018-08-25T19:40:02.133Z,97397.98
2018-08-25T19:42:31.132Z,97397.33
2018-08-25T19:45:00.151Z,97392.98
2018-08-25T19:47:29.473Z,97394.37
2018-08-25T19:49:58.729Z,97393.13
2018-08-25T19:52:27.791Z,97392.80
2018-08-25T19:54:56.942Z,97391.03
2018-08-25T19:57:26.210Z,97392.89
2018-08-25T19:59:55.398Z,97394.16
2018-08-25T20:02:24.571Z,97393.17
2018-08-25T20:04:53.496Z,97394.20
2018-08-25T20:07:22.872Z,97392.11
2018-08-25T20:09:52.060Z,97393.66
2018-08-25T20:12:21.487Z,97393.77
2018-08-25T20:14:50.691Z,97393.19
2018-08-25T20:17:19.935Z,97395.88
2018-08-25T20:19:49.477Z,97393.73
2018-08-25T20:22:18.553Z,97394.45
2018-08-25T20:24:47.984Z,97406.29
2018-08-25T20:27:17.244Z,97400.59
2018-08-25T20:29:46.251Z,97404.40
2018-08-25T20:32:15.532Z,97398.92
2018-08-25T20:34:44.507Z,97397.16
2018-08-25T20:37:13.773Z,97395.51
2018-08-25T20:39:43.318Z,97400.69
2018-08-25T20:42:12.772Z,97406.48
2018-08-25T20:44:42.126Z,97399.44
2018-08-25T20:47:11.466Z,97402.36
2018-08-25T20:49:40.959Z,97400.53
2018-08-25T20:52:10.824Z,97399.74
2018-08-25T20:54:40.250Z,97395.48
2018-08-25T20:57:09.665Z,97395.21
2018-08-25T20:59:38.786Z,97400.98
2018-08-25T21:02:07.784Z,97403.29
2018-08-25T21:04:37.119Z,97403.34
2018-08-25T21:07:06.465Z,97402.72
2018-08-25T21:09:35.795Z,97403.52
2018-08-25T21:12:05.268Z,97403.10
2018-08-25T21:14:34.823Z,97409.98
2018-08-25T21:17:04.231Z,97404.77
2018-08-25T21:19:33.169Z,97407.23
2018-08-25T21:22:02.566Z,97401.32
2018-08-25T21:24:31.712Z,97398.72
2018-08-25T21:27:00.937Z,97402.95
2018-08-25T21:29:30.276Z,97408.06
2018-08-25T21:31:59.493Z,97404.52
2018-08-25T21:34:28.594Z,97408.35
2018-08-25T21:36:57.920Z,97406.04
2018-08-25T21:39:27.315Z,97411.20
2018-08-25T21:41:56.372Z,97403.80
2018-08-25T21:44:25.758Z,97402.37
2018-08-25T21:46:54.995Z,97399.92
2018-08-25T21:49:24.044Z,97399.84
2018-08-25T21:51:53.244Z,97394.07
2018-08-25T21:54:22.431Z,97400.33
2018-08-25T21:56:51.748Z,97406.36
2018-08-25T21:59:21.277Z,97396.25
2018-08-25T22:01:55.511Z,97404.63
2018-08-25T22:04:24.895Z,97403.88
2018-08-25T22:06:54.099Z,97399.91
2018-08-25T22:09:23.381Z,97408.78
2018-08-25T22:11:52.540Z,97408.09
2018-08-25T22:14:21.859Z,97405.62
2018-08-25T22:16:51.404Z,97400.44
2018-08-25T22:19:20.720Z,97404.95
2018-08-25T22:21:50.195Z,97402.76
2018-08-25T22:24:19.216Z,97398.17
2018-08-25T22:26:48.209Z,97395.16
2018-08-25T22:29:17.541Z,97396.55
2018-08-25T22:31:46.877Z,97390.55
2018-08-25T22:34:16.081Z,97389.83
2018-08-25T22:36:45.471Z,97391.11
2018-08-25T22:39:14.828Z,97392.27
2018-08-25T22:41:44.123Z,97391.64
2018-08-25T22:44:13.757Z,97388.02
2018-08-25T22:46:43.181Z,97389.22
2018-08-25T22:49:12.218Z,97387.41
2018-08-25T22:51:41.355Z,97386.41
2018-08-25T22:54:10.671Z,97387.00
2018-08-25T22:56:39.968Z,97388.97
2018-08-25T22:59:09.326Z,97387.54
2018-08-25T23:01:38.638Z,97384.45
2018-08-25T23:04:08.003Z,97380.56
2018-08-25T23:06:37.271Z,97377.45
2018-08-25T23:09:08.194Z,97377.17
2018-08-25T23:11:37.568Z,97381.08
2018-08-25T23:14:06.602Z,97382.73
2018-08-25T23:16:36.052Z,97382.30
2018-08-25T23:19:05.576Z,97382.44
2018-08-25T23:21:34.951Z,97377.44
2018-08-25T23:24:04.001Z,97374.88
2018-08-25T23:26:33.444Z,97376.11
2018-08-25T23:29:02.659Z,97378.44
2018-08-25T23:31:31.844Z,97379.50
2018-08-25T23:34:01.058Z,97378.70
2018-08-25T23:36:30.396Z,97379.35
2018-08-25T23:38:59.459Z,97367.28
2018-08-25T23:41:28.543Z,97370.52
2018-08-25T23:43:57.736Z,97371.66
2018-08-25T23:46:27.099Z,97372.09
2018-08-25T23:48:56.413Z,97371.75
2018-08-25T23:51:25.631Z,97370.39
2018-08-25T23:53:55.076Z,97371.39
2018-08-25T23:56:24.139Z,97376.45
2018-08-25T23:58:53.328Z,97382.30
